createdAt,value
2023-04-17T00:00:24.842Z,101406.59
2023-04-17T00:02:51.184Z,101404.75
2023-04-17T00:05:17.576Z,101410.50
2023-04-17T00:07:43.810Z,101417.13
2023-04-17T00:10:10.248Z,101428.66
2023-04-17T00:12:36.510Z,101425.19
2023-04-17T00:15:02.955Z,101442.56
2023-04-17T00:17:29.180Z,101461.19
2023-04-17T00:19:55.392Z,101458.81
2023-04-17T00:22:21.612Z,101462.78
2023-04-17T00:24:47.823Z,101467.00
2023-04-17T00:27:14.033Z,101467.78
2023-04-17T00:29:40.231Z,101457.41
2023-04-17T00:32:06.603Z,101443.47
2023-04-17T00:34:32.941Z,101441.34
2023-04-17T00:36:59.182Z,101456.72
2023-04-17T00:39:25.454Z,101460.78
2023-04-17T00:41:51.653Z,101464.44
2023-04-17T00:44:17.859Z,101478.28
2023-04-17T00:46:44.067Z,101482.09
2023-04-17T00:49:10.501Z,101475.31
2023-04-17T00:51:36.920Z,101467.34
2023-04-17T00:54:03.131Z,101462.19
2023-04-17T00:56:29.335Z,101454.19
2023-04-17T00:58:55.834Z,101453.03
2023-04-17T01:01:22.052Z,101444.44
2023-04-17T01:03:49.066Z,101437.44
2023-04-17T01:06:15.426Z,101434.25
2023-04-17T01:08:41.995Z,101426.06
2023-04-17T01:11:08.597Z,101424.41
2023-04-17T01:13:34.802Z,101421.81
2023-04-17T01:16:01.007Z,101415.66
2023-04-17T01:18:27.220Z,101424.00
2023-04-17T01:20:53.428Z,101426.59
2023-04-17T01:23:19.629Z,101425.22
2023-04-17T01:25:45.828Z,101436.78
2023-04-17T01:28:12.052Z,101435.63
2023-04-17T01:30:38.300Z,101437.38
2023-04-17T01:33:04.546Z,101431.59
2023-04-17T01:35:30.746Z,101444.22
2023-04-17T01:37:56.970Z,101446.56
2023-04-17T01:40:23.176Z,101446.16
2023-04-17T01:42:49.387Z,101445.78
2023-04-17T01:45:15.578Z,101453.75
2023-04-17T01:47:41.812Z,101450.75
2023-04-17T01:50:08.150Z,101449.16
2023-04-17T01:52:34.738Z,101449.16
2023-04-17T01:55:00.972Z,101450.97
2023-04-17T01:57:27.193Z,101453.16
2023-04-17T01:59:53.397Z,101460.94
2023-04-17T02:02:19.753Z,101463.09
2023-04-17T02:04:46.134Z,101475.69
2023-04-17T02:07:12.350Z,101474.09
2023-04-17T02:09:38.564Z,101478.28
2023-04-17T02:12:04.867Z,101478.28
2023-04-17T02:14:31.077Z,101479.09
2023-04-17T02:16:57.300Z,101474.28
2023-04-17T02:19:23.495Z,101478.22
2023-04-17T02:21:49.700Z,101477.81
2023-04-17T02:24:15.912Z,101478.63
2023-04-17T02:26:42.114Z,101483.81
2023-04-17T02:29:08.317Z,101484.63
2023-04-17T02:31:34.589Z,101485.41
2023-04-17T02:34:00.869Z,101485.41
2023-04-17T02:36:27.065Z,101489.00
2023-04-17T02:38:53.294Z,101486.59
2023-04-17T02:41:19.500Z,101478.94
2023-04-17T02:43:45.721Z,101494.50
2023-04-17T02:46:11.969Z,101504.53
2023-04-17T02:48:38.224Z,101495.47
2023-04-17T02:51:04.438Z,101501.69
2023-04-17T02:53:30.650Z,101509.91
2023-04-17T02:55:57.454Z,101501.88
2023-04-17T02:58:23.675Z,101509.72
2023-04-17T03:00:49.897Z,101514.91
2023-04-17T03:03:16.271Z,101500.94
2023-04-17T03:05:42.623Z,101498.53
2023-04-17T03:08:08.853Z,101495.34
2023-04-17T03:10:35.092Z,101491.91
2023-04-17T03:13:01.309Z,101484.13
2023-04-17T03:15:27.501Z,101485.72
2023-04-17T03:17:53.782Z,101492.06
2023-04-17T03:20:20.020Z,101496.88
2023-04-17T03:22:46.244Z,101491.09
2023-04-17T03:25:12.447Z,101493.69
2023-04-17T03:27:38.755Z,101501.28
2023-04-17T03:30:05.282Z,101502.88
2023-04-17T03:32:31.546Z,101498.69
2023-04-17T03:34:57.753Z,101497.88
2023-04-17T03:37:23.973Z,101497.06
2023-04-17T03:39:50.180Z,101498.25
2023-04-17T03:42:16.379Z,101498.06
2023-04-17T03:44:42.595Z,101497.25
2023-04-17T03:47:09.490Z,101503.44
2023-04-17T03:49:35.695Z,101502.63
2023-04-17T03:52:01.951Z,101497.63
2023-04-17T03:54:28.179Z,101499.63
2023-04-17T03:56:54.390Z,101496.78
2023-04-17T03:59:20.610Z,101501.19
2023-04-17T04:01:46.964Z,101514.53
2023-04-17T04:04:13.474Z,101520.25
2023-04-17T04:06:41.602Z,101512.31
2023-04-17T04:09:07.835Z,101531.44
2023-04-17T04:11:34.043Z,101551.47
2023-04-17T04:14:00.251Z,101565.13
2023-04-17T04:16:26.486Z,101575.78
2023-04-17T04:18:52.758Z,101584.34
2023-04-17T04:21:18.968Z,101594.09
2023-04-17T04:23:45.178Z,101592.00
2023-04-17T04:26:11.421Z,101596.06
2023-04-17T04:28:37.634Z,101577.25
2023-04-17T04:31:03.852Z,101583.91
2023-04-17T04:33:30.075Z,101586.81
2023-04-17T04:35:56.284Z,101580.31
2023-04-17T04:38:22.494Z,101567.22
2023-04-17T04:40:48.690Z,101554.72
2023-04-17T04:43:14.904Z,101534.81
2023-04-17T04:45:41.213Z,101533.75
2023-04-17T04:48:07.569Z,101522.53
2023-04-17T04:50:33.919Z,101530.91
2023-04-17T04:53:00.355Z,101532.91
2023-04-17T04:55:26.743Z,101536.88
2023-04-17T04:57:53.104Z,101543.22
2023-04-17T05:00:19.488Z,101565.06
2023-04-17T05:02:45.935Z,101572.03
2023-04-17T05:05:12.280Z,101579.47
2023-04-17T05:07:38.613Z,101579.63
2023-04-17T05:10:05.802Z,101532.88
2023-04-17T05:12:32.054Z,101496.53
2023-04-17T05:14:58.373Z,101482.13
2023-04-17T05:17:24.839Z,101473.91
2023-04-17T05:19:51.145Z,101467.59
2023-04-17T05:22:17.651Z,101496.44
2023-04-17T05:24:44.027Z,101539.19
2023-04-17T05:27:10.423Z,101556.91
2023-04-17T05:29:36.819Z,101557.59
2023-04-17T05:32:03.118Z,101557.06
2023-04-17T05:34:29.606Z,101564.22
2023-04-17T05:36:56.014Z,101571.66
2023-04-17T05:39:22.346Z,101581.53
2023-04-17T05:41:48.735Z,101575.72
2023-04-17T05:44:15.398Z,101580.19
2023-04-17T05:46:41.886Z,101573.78
2023-04-17T05:49:08.546Z,101584.13
2023-04-17T05:51:35.336Z,101623.44
2023-04-17T05:54:02.114Z,101619.28
2023-04-17T05:56:28.491Z,101614.28
2023-04-17T05:58:55.246Z,101572.84
2023-04-17T06:01:21.658Z,101531.38
2023-04-17T06:03:48.200Z,101545.84
2023-04-17T06:06:15.111Z,101519.28
2023-04-17T06:08:41.818Z,101443.22
2023-04-17T06:11:08.192Z,101332.31
2023-04-17T06:13:34.600Z,101199.97
2023-04-17T06:16:00.842Z,101115.88
2023-04-17T06:18:27.507Z,101197.31
2023-04-17T06:20:53.862Z,101010.97
2023-04-17T06:23:20.130Z,101021.63
2023-04-17T06:25:46.543Z,100894.28
2023-04-17T06:28:12.837Z,100852.34
2023-04-17T06:30:39.101Z,100818.25
2023-04-17T06:33:05.517Z,100898.97
2023-04-17T06:35:31.901Z,100971.97
2023-04-17T06:37:58.302Z,101021.88
2023-04-17T06:40:24.557Z,101009.09
2023-04-17T06:42:50.973Z,101147.56
2023-04-17T06:45:17.394Z,100960.41
2023-04-17T06:47:45.318Z,100840.53
2023-04-17T06:50:11.560Z,100841.69
2023-04-17T06:52:37.773Z,100893.50
2023-04-17T06:55:04.129Z,100958.69
2023-04-17T06:57:30.522Z,100760.84
2023-04-17T06:59:56.801Z,100745.84
2023-04-17T07:02:23.457Z,100579.03
2023-04-17T07:04:49.871Z,100442.41
2023-04-17T07:07:16.163Z,100389.06
2023-04-17T07:09:42.375Z,100438.41
2023-04-17T07:12:08.688Z,100398.00
2023-04-17T07:14:35.412Z,100304.41
2023-04-17T07:17:01.848Z,100363.78
2023-04-17T07:19:28.118Z,100340.94
2023-04-17T07:21:54.418Z,100386.16
2023-04-17T07:24:20.685Z,100461.63
2023-04-17T07:26:46.913Z,100512.47
2023-04-17T07:29:13.478Z,100490.84
2023-04-17T07:31:40.078Z,100714.66
2023-04-17T07:34:06.772Z,100686.00
2023-04-17T07:36:33.017Z,100433.13
2023-04-17T07:38:59.295Z,100608.59
2023-04-17T07:41:25.596Z,100742.34
2023-04-17T07:43:51.871Z,100904.22
2023-04-17T07:46:18.257Z,101021.34
2023-04-17T07:48:44.510Z,100970.66
2023-04-17T07:51:10.750Z,100959.63
2023-04-17T07:53:36.983Z,101043.16
2023-04-17T07:56:03.305Z,100939.34
2023-04-17T07:58:29.561Z,101077.72
2023-04-17T08:00:55.798Z,100451.44
2023-04-17T08:03:22.351Z,100428.28
2023-04-17T08:05:51.230Z,100287.66
2023-04-17T08:08:17.747Z,100564.28
2023-04-17T08:10:44.017Z,100407.28
2023-04-17T08:13:10.355Z,100311.06
2023-04-17T08:15:38.548Z,100287.56
2023-04-17T08:18:06.231Z,100317.22
2023-04-17T08:20:32.561Z,100261.09
2023-04-17T08:22:58.852Z,100461.28
2023-04-17T08:25:25.604Z,100325.63
2023-04-17T08:27:51.921Z,100526.59
2023-04-17T08:30:19.255Z,100526.59
2023-04-17T08:32:46.423Z,100585.81
2023-04-17T08:35:13.144Z,100555.72
2023-04-17T08:37:39.567Z,100556.34
2023-04-17T08:40:06.095Z,100515.63
2023-04-17T08:42:34.487Z,100484.69
2023-04-17T08:45:00.848Z,100623.19
2023-04-17T08:47:28.144Z,100403.28
2023-04-17T08:49:54.576Z,100438.63
2023-04-17T08:52:20.817Z,100685.34
2023-04-17T08:54:48.976Z,100500.94
2023-04-17T08:57:16.785Z,100293.91
2023-04-17T08:59:43.060Z,100253.34
2023-04-17T09:02:09.475Z,100181.91
2023-04-17T09:04:36.556Z,100204.22
2023-04-17T09:07:03.479Z,100238.72
2023-04-17T09:09:45.827Z,100149.25
2023-04-17T09:12:12.074Z,100035.97
2023-04-17T09:14:38.407Z,100069.16
2023-04-17T09:17:04.697Z,100047.88
2023-04-17T09:19:31.861Z,99851.91
2023-04-17T09:22:16.873Z,99807.78
2023-04-17T09:24:43.095Z,99759.25
2023-04-17T09:27:27.760Z,99782.88
2023-04-17T09:29:57.746Z,99937.16
2023-04-17T09:32:24.148Z,99654.50
2023-04-17T09:34:50.368Z,99726.28
2023-04-17T09:37:16.630Z,99725.41
2023-04-17T09:39:58.867Z,99581.16
2023-04-17T09:42:25.263Z,99717.34
2023-04-17T09:44:51.546Z,99829.44
2023-04-17T09:47:17.753Z,100079.91
2023-04-17T09:49:45.449Z,99944.16
2023-04-17T09:52:11.691Z,99497.56
2023-04-17T09:54:38.736Z,99632.81
2023-04-17T09:57:08.341Z,99930.25
2023-04-17T09:59:34.981Z,100280.72
2023-04-17T10:02:01.306Z,100212.13
2023-04-17T10:04:28.640Z,99696.69
2023-04-17T10:06:55.568Z,100101.94
2023-04-17T10:09:21.786Z,99940.63
2023-04-17T10:11:48.141Z,99879.81
2023-04-17T10:14:26.587Z,100065.84
2023-04-17T10:16:52.977Z,100166.63
2023-04-17T10:19:31.779Z,100456.97
2023-04-17T10:22:16.212Z,100299.72
2023-04-17T10:24:42.649Z,100130.25
2023-04-17T10:27:24.233Z,100248.97
2023-04-17T10:29:59.834Z,100216.00
2023-04-17T10:32:26.496Z,100206.06
2023-04-17T10:34:53.510Z,100437.03
2023-04-17T10:37:19.760Z,100043.03
2023-04-17T10:39:52.899Z,100157.38
2023-04-17T10:42:19.699Z,100382.13
2023-04-17T10:44:46.007Z,100028.47
2023-04-17T10:49:54.256Z,100192.69
2023-04-17T10:52:32.781Z,100271.69
2023-04-17T10:55:02.614Z,100107.28
2023-04-17T10:57:47.512Z,100285.53
2023-04-17T11:00:14.064Z,100340.69
2023-04-17T11:02:40.419Z,100643.34
2023-04-17T11:05:06.962Z,100749.69
2023-04-17T11:07:34.308Z,100564.34
2023-04-17T11:10:00.528Z,100381.09
2023-04-17T11:12:26.767Z,100465.00
2023-04-17T11:14:52.998Z,100668.81
2023-04-17T11:17:20.785Z,100594.66
2023-04-17T11:19:47.026Z,100389.44
2023-04-17T11:22:13.224Z,100067.03
2023-04-17T11:24:39.446Z,100162.69
2023-04-17T11:27:05.641Z,99980.44
2023-04-17T11:29:31.886Z,100256.19
2023-04-17T11:31:58.200Z,100202.41
2023-04-17T11:34:27.394Z,100508.81
2023-04-17T11:36:54.841Z,100715.56
2023-04-17T11:39:21.075Z,100729.22
2023-04-17T11:41:47.331Z,100727.59
2023-04-17T11:44:13.729Z,100779.09
2023-04-17T11:46:40.055Z,100645.72
2023-04-17T11:49:07.159Z,100852.56
2023-04-17T11:51:35.682Z,101167.63
2023-04-17T11:54:01.970Z,101153.03
2023-04-17T11:56:30.647Z,101363.81
2023-04-17T11:58:59.693Z,101456.50
2023-04-17T12:01:26.562Z,101564.78
2023-04-17T12:03:53.275Z,101481.63
2023-04-17T12:06:19.609Z,101434.75
2023-04-17T12:08:49.562Z,101376.84
2023-04-17T12:11:18.677Z,101445.81
2023-04-17T12:13:44.904Z,101397.22
2023-04-17T12:16:11.206Z,101331.50
2023-04-17T12:18:37.439Z,101360.75
2023-04-17T12:21:03.703Z,101266.66
2023-04-17T12:23:29.940Z,101261.09
2023-04-17T12:25:56.150Z,101384.88
2023-04-17T12:28:22.372Z,101366.19
2023-04-17T12:30:48.670Z,101413.88
2023-04-17T12:33:15.382Z,101296.34
2023-04-17T12:35:41.838Z,101502.69
2023-04-17T12:41:11.098Z,101387.41
2023-04-17T12:43:37.363Z,101383.47
2023-04-17T12:46:03.741Z,101261.59
2023-04-17T12:48:32.710Z,101151.78
2023-04-17T12:50:59.294Z,101260.97
2023-04-17T12:53:25.545Z,101367.22
2023-04-17T12:55:51.789Z,101437.22
2023-04-17T12:58:18.044Z,101465.53
2023-04-17T13:00:44.648Z,101502.88
2023-04-17T13:03:11.022Z,101495.84
2023-04-17T13:05:37.365Z,101626.06
2023-04-17T13:08:03.576Z,101617.63
2023-04-17T13:10:29.785Z,101619.25
2023-04-17T13:12:55.989Z,101588.13
2023-04-17T13:15:22.208Z,101660.47
2023-04-17T13:17:48.500Z,101661.03
2023-04-17T13:20:14.746Z,101539.97
2023-04-17T13:22:40.974Z,101686.38
2023-04-17T13:25:07.358Z,101655.09
2023-04-17T13:27:33.569Z,101730.22
2023-04-17T13:29:59.920Z,101732.69
2023-04-17T13:32:26.239Z,101629.38
2023-04-17T13:34:52.554Z,101587.63
2023-04-17T13:37:18.977Z,101485.69
2023-04-17T13:39:45.316Z,101481.84
2023-04-17T13:42:12.510Z,101528.13
2023-04-17T13:44:38.763Z,101643.44
2023-04-17T13:47:04.962Z,101640.00
2023-04-17T13:49:31.168Z,101650.44
2023-04-17T13:51:57.385Z,101703.31
2023-04-17T13:54:23.603Z,101760.53
2023-04-17T13:56:49.798Z,101663.97
2023-04-17T13:59:16.027Z,101711.72
2023-04-17T14:01:42.285Z,101783.94
2023-04-17T14:04:08.817Z,101820.84
2023-04-17T14:06:35.137Z,101792.72
2023-04-17T14:09:01.721Z,101789.31
2023-04-17T14:11:28.168Z,101817.19
2023-04-17T14:13:54.378Z,101827.38
2023-04-17T14:16:20.657Z,101774.59
2023-04-17T14:18:47.541Z,101717.00
2023-04-17T14:21:13.766Z,101768.75
2023-04-17T14:37:07.814Z,101758.75
2023-04-17T14:43:00.539Z,101727.94
2023-04-17T14:57:49.943Z,101786.22
2023-04-17T15:03:27.639Z,101831.06
2023-04-17T15:05:54.143Z,101837.91
2023-04-17T15:08:24.444Z,101848.13
2023-04-17T15:10:51.684Z,101804.59
2023-04-17T15:13:18.024Z,101910.47
2023-04-17T15:15:44.350Z,101827.75
2023-04-17T15:18:10.743Z,101866.78
2023-04-17T15:20:36.975Z,101832.84
2023-04-17T15:23:03.203Z,101754.06
2023-04-17T15:25:29.444Z,101662.59
2023-04-17T15:27:58.066Z,101664.53
2023-04-17T15:30:26.816Z,101716.81
2023-04-17T15:32:53.225Z,101777.25
2023-04-17T15:35:29.616Z,101823.38
2023-04-17T15:37:55.948Z,101776.69
2023-04-17T15:40:22.384Z,101756.19
2023-04-17T15:42:48.610Z,101686.56
2023-04-17T15:45:15.008Z,101703.69
2023-04-17T15:47:48.886Z,101809.28
2023-04-17T15:50:15.653Z,101826.63
2023-04-17T15:52:45.034Z,101839.50
2023-04-17T15:55:11.546Z,101894.53
2023-04-17T15:57:38.153Z,101949.53
2023-04-17T16:00:04.578Z,101974.00
2023-04-17T16:02:36.506Z,101915.63
2023-04-17T16:05:09.337Z,101829.59
2023-04-17T16:07:37.944Z,101883.53
2023-04-17T16:10:05.341Z,101922.41
2023-04-17T16:12:31.719Z,101864.47
2023-04-17T16:15:00.914Z,101926.63
2023-04-17T16:17:33.277Z,101942.25
2023-04-17T16:20:04.811Z,101966.31
2023-04-17T16:25:14.289Z,101997.34
2023-04-17T16:27:40.620Z,101961.41
2023-04-17T16:30:07.362Z,102030.56
2023-04-17T16:32:33.597Z,102054.94
2023-04-17T16:37:53.374Z,102097.97
2023-04-17T16:40:19.645Z,102106.94
2023-04-17T16:42:45.928Z,102117.53
2023-04-17T16:45:19.765Z,102152.28
2023-04-17T16:47:46.156Z,102183.28
2023-04-17T16:50:12.577Z,102212.72
2023-04-17T16:52:39.161Z,102217.50
2023-04-17T16:55:07.636Z,102229.06
2023-04-17T16:57:36.336Z,102226.22
2023-04-17T17:00:02.903Z,102251.06
2023-04-17T17:02:29.226Z,102258.63
2023-04-17T17:05:09.528Z,102260.06
2023-04-17T17:07:35.793Z,102262.41
2023-04-17T17:10:02.053Z,102262.63
2023-04-17T17:12:28.290Z,102264.75
2023-04-17T17:14:54.513Z,102272.28
2023-04-17T17:17:20.735Z,102270.25
2023-04-17T17:19:47.103Z,102271.88
2023-04-17T17:22:19.174Z,102274.47
2023-04-17T17:24:45.438Z,102165.53
2023-04-17T17:27:11.711Z,102093.75
2023-04-17T17:29:37.912Z,102032.91
2023-04-17T17:32:04.353Z,101965.09
2023-04-17T17:34:30.713Z,101933.28
2023-04-17T17:36:56.986Z,101933.84
2023-04-17T17:39:23.230Z,101943.66
2023-04-17T17:41:49.500Z,101927.66
2023-04-17T17:44:15.862Z,101946.88
2023-04-17T17:46:42.329Z,101956.28
2023-04-17T17:49:08.551Z,101961.47
2023-04-17T17:51:35.536Z,101964.59
2023-04-17T17:54:01.973Z,101952.06
2023-04-17T17:56:28.208Z,101956.00
2023-04-17T17:58:54.478Z,101973.19
2023-04-17T18:01:20.848Z,101961.38
2023-04-17T18:03:49.578Z,101944.78
2023-04-17T18:06:16.262Z,101960.56
2023-04-17T18:08:42.469Z,101956.78
2023-04-17T18:11:08.698Z,101969.91
2023-04-17T18:13:34.937Z,101949.97
2023-04-17T18:16:03.065Z,101917.47
2023-04-17T18:18:29.291Z,101834.69
2023-04-17T18:20:55.520Z,101868.88
2023-04-17T18:23:21.822Z,101834.69
2023-04-17T18:26:00.769Z,101808.47
2023-04-17T18:28:27.010Z,101854.47
2023-04-17T18:30:53.412Z,101949.69
2023-04-17T18:33:19.716Z,102053.66
2023-04-17T18:35:46.192Z,102124.47
2023-04-17T18:38:18.644Z,102168.78
2023-04-17T18:40:44.885Z,102185.19
2023-04-17T18:43:11.104Z,102183.16
2023-04-17T18:45:38.127Z,102193.44
2023-04-17T18:48:06.074Z,102210.81
2023-04-17T18:50:32.310Z,102224.56
2023-04-17T18:52:58.695Z,102226.72
2023-04-17T18:55:24.921Z,102213.81
2023-04-17T18:57:51.193Z,102211.66
2023-04-17T19:00:17.532Z,102214.06
2023-04-17T19:02:43.792Z,102218.72
2023-04-17T19:05:10.201Z,102224.97
2023-04-17T19:07:39.234Z,102245.50
2023-04-17T19:10:05.717Z,102249.09
2023-04-17T19:12:39.432Z,102255.94
2023-04-17T19:15:06.237Z,102262.75
2023-04-17T19:17:32.612Z,102276.34
2023-04-17T19:20:01.457Z,102270.09
2023-04-17T19:22:27.819Z,102262.97
2023-04-17T19:24:56.991Z,102263.25
2023-04-17T19:27:26.882Z,102276.56
2023-04-17T19:30:01.031Z,102270.28
2023-04-17T19:32:27.755Z,102276.16
2023-04-17T19:34:54.846Z,102274.72
2023-04-17T19:37:21.185Z,102275.16
2023-04-17T19:39:48.601Z,102264.16
2023-04-17T19:42:14.840Z,102254.44
2023-04-17T19:44:41.087Z,102261.56
2023-04-17T19:47:07.342Z,102257.22
2023-04-17T19:49:33.589Z,102255.16
2023-04-17T19:51:59.852Z,102248.63
2023-04-17T19:54:26.746Z,102242.81
2023-04-17T19:56:52.977Z,102234.88
2023-04-17T19:59:19.186Z,102229.41
2023-04-17T20:01:45.503Z,102221.63
2023-04-17T20:04:11.849Z,102220.53
2023-04-17T20:06:38.125Z,102215.25
2023-04-17T20:09:04.319Z,102219.22
2023-04-17T20:11:30.537Z,102217.00
2023-04-17T20:13:56.745Z,102204.72
2023-04-17T20:16:22.973Z,102206.44
2023-04-17T20:18:49.395Z,102191.16
2023-04-17T20:21:15.606Z,102199.34
2023-04-17T20:23:44.776Z,102198.69
2023-04-17T20:26:11.009Z,102187.31
2023-04-17T20:28:37.217Z,102181.34
2023-04-17T20:31:03.500Z,102173.81
2023-04-17T20:33:29.790Z,102160.97
2023-04-17T20:35:56.097Z,102148.50
2023-04-17T20:38:22.296Z,102137.03
2023-04-17T20:40:48.509Z,102128.78
2023-04-17T20:43:14.714Z,102116.44
2023-04-17T20:45:40.915Z,102109.56
2023-04-17T20:48:07.145Z,102117.97
2023-04-17T20:50:33.379Z,102125.19
2023-04-17T20:52:59.592Z,102118.91
2023-04-17T20:55:25.836Z,102111.97
2023-04-17T20:57:52.053Z,102110.53
2023-04-17T21:00:18.270Z,102102.75
2023-04-17T21:02:44.539Z,102095.16
2023-04-17T21:05:10.806Z,102090.19
2023-04-17T21:07:37.305Z,102091.63
2023-04-17T21:10:03.613Z,102091.16
2023-04-17T21:12:29.851Z,102084.19
2023-04-17T21:14:56.085Z,102081.31
2023-04-17T21:17:22.391Z,102074.66
2023-04-17T21:19:48.615Z,102075.78
2023-04-17T21:22:14.843Z,102079.56
2023-04-17T21:24:41.075Z,102077.31
2023-04-17T21:27:07.315Z,102069.00
2023-04-17T21:29:33.546Z,102078.56
2023-04-17T21:31:59.885Z,102093.47
2023-04-17T21:34:26.680Z,102120.13
2023-04-17T21:36:53.322Z,102108.66
2023-04-17T21:39:19.683Z,102104.13
2023-04-17T21:41:45.912Z,102119.31
2023-04-17T21:44:12.346Z,102113.50
2023-04-17T21:46:38.775Z,102113.16
2023-04-17T21:49:05.002Z,102108.28
2023-04-17T21:51:31.243Z,102092.56
2023-04-17T21:53:57.464Z,102076.38
2023-04-17T21:56:23.689Z,102072.88
2023-04-17T21:58:50.167Z,102064.94
2023-04-17T22:01:16.506Z,102068.50
2023-04-17T22:03:42.753Z,102066.41
2023-04-17T22:06:09.004Z,102065.00
2023-04-17T22:08:35.203Z,102064.22
2023-04-17T22:11:01.452Z,102082.63
2023-04-17T22:13:27.653Z,102082.66
2023-04-17T22:15:54.539Z,102095.91
2023-04-17T22:18:22.011Z,102108.38
2023-04-17T22:20:48.225Z,102106.56
2023-04-17T22:23:14.429Z,102096.41
2023-04-17T22:25:40.635Z,102108.66
2023-04-17T22:28:06.839Z,102102.03
2023-04-17T22:30:33.065Z,102106.56
2023-04-17T22:32:59.342Z,102103.53
2023-04-17T22:35:25.596Z,102106.56
2023-04-17T22:37:51.809Z,102116.75
2023-04-17T22:40:18.034Z,102106.72
2023-04-17T22:42:44.245Z,102103.84
2023-04-17T22:45:10.488Z,102088.28
2023-04-17T22:47:36.713Z,102087.81
2023-04-17T22:50:03.004Z,102089.75
2023-04-17T22:52:29.209Z,102081.66
2023-04-17T22:54:55.433Z,102074.59
2023-04-17T22:57:21.634Z,102055.16
2023-04-17T22:59:47.887Z,102051.44
2023-04-17T23:02:14.127Z,102039.50
2023-04-17T23:04:40.392Z,102034.47
2023-04-17T23:07:06.615Z,102026.72
2023-04-17T23:09:32.806Z,102019.94
2023-04-17T23:11:59.015Z,102015.59
2023-04-17T23:14:25.208Z,102011.38
2023-04-17T23:16:51.598Z,102003.78
2023-04-17T23:19:17.794Z,102002.34
2023-04-17T23:21:44.009Z,101989.88
2023-04-17T23:24:10.238Z,101981.78
2023-04-17T23:26:36.498Z,101967.75
2023-04-17T23:29:02.699Z,101968.25
2023-04-17T23:31:28.977Z,101965.50
2023-04-17T23:33:55.215Z,101961.63
2023-04-17T23:36:21.452Z,101962.72
2023-04-17T23:38:47.659Z,101953.84
2023-04-17T23:41:13.882Z,101955.19
2023-04-17T23:43:40.119Z,101939.34
2023-04-17T23:46:06.324Z,101933.03
2023-04-17T23:48:32.520Z,101933.03
2023-04-17T23:50:58.751Z,101929.16
2023-04-17T23:53:24.950Z,101921.88
2023-04-17T23:55:51.168Z,101917.69
2023-04-17T23:58:17.376Z,101916.56
